臺北終端管制區 - 桃園五邊雷達席

METAR RCTP 141600Z 08016KT 9999 FEW020 20/16 Q1020 NOSIG RMK A3014=

站台狀態:Online
最後更新:2019-12-15 00:00:02